Westfield, NC (27053)

20:36 EST le 27 février 2017 (GMT -0500)
Lawsonville NC Hart Rd. | | Change Station

Alt. 1112 ft 36.49 °N, 80.25 °W | Updated 2 minutes ago

Couvert
Couvert
55.2 ° F
Paraît 55.2 ° F
N
0.0
Vent Variable Vent de Sud
Gusts 1.0 mph

Aujourd'hui
Haut(e) -- | Bas -- ° F
--% Risque de précip.
Hier
Haut(e) -- | Bas -- ° F
Precip. -- pouce
Pression 30.35 pouce
Visibilité 10.0 Miles terrestres
Nuages Nuages épars 7000 ft
Nuages épars 8500 ft
Point de rosée 32 ° F
Humidité 42%
Précipitations 0.00 pouce
Profondeur de la couche neigeuse Non disponible.
6:54 AM 6:14 PM
Lune montante, 3% visible
METAR KMWK 280110Z AUTO 00000KT 10SM SCT070 SCT085 12/00 A3035 RMK AO2 T01160003
Pression 30.35 pouce
Visibilité 10.0 Miles terrestres
Nuages Nuages épars 7000 ft
Nuages épars 8500 ft
Point de rosée 32 ° F
Humidité 42%
Précipitations 0.00 pouce
Profondeur de la couche neigeuse Non disponible.
6:54 AM 6:14 PM
Lune montante, 3% visible
METAR KMWK 280110Z AUTO 00000KT 10SM SCT070 SCT085 12/00 A3035 RMK AO2 T01160003

Get Your Daily Forecast Email!

Thanks for signing up!

Be on the lookout for a verification email in your inbox.

You'll start receiving the daily forecast at 8 AM.

×

10-Day Weather Forecast

Almanac

Astronomie

Feb. 27, 2017 Lever Coucher
Temps réel
Crépuscule civil
Crépuscule nautique
Crépuscule astronomique
Lune
Durée de lumière visible
Longueur du jour
Tomorrow will be .
, % of the Moon is Illuminated

Extrêmes aujourd'hui

State Highs State Lows

Community

WunderPhotos

Upload Photos

1,962,540 Photos téléchargées !

WunderBlog® & News

Nearby

Qualité de l'air

  Qualité de l'air Indice de la qualité de l'air Polluant
Not available.

Épaisseur de neige

Station Depth Altitude

Activité sismique

Ville Distance Mag. Time & Date
Minimum magnitude displayed is 2.5.

Températures des eaux côtières

Lieu Température

Stations

Stations météo à proximité

Emplacement de la station Température Refroidissement éolien Point de rosée Humidité Vent Precip. Alt. Mise à jour Type
                   

Watches & Warnings

There are currently no watches in effect.